sensor_id;sensor_type;location;lat;lon;timestamp;pressure;altitude;pressure_sealevel;temperature;humidity
61055;BME280;46939;48.940;8.258;2023-01-31T00:00:19;101482.78;;;11.95;43.74
61055;BME280;46939;48.940;8.258;2023-01-31T00:02:50;101477.94;;;11.99;43.39
61055;BME280;46939;48.940;8.258;2023-01-31T00:05:19;101474.22;;;12.25;43.04
61055;BME280;46939;48.940;8.258;2023-01-31T00:07:47;101470.34;;;11.88;43.58
61055;BME280;46939;48.940;8.258;2023-01-31T00:10:15;101472.31;;;11.86;43.53
61055;BME280;46939;48.940;8.258;2023-01-31T00:12:44;101468.75;;;12.18;42.66
61055;BME280;46939;48.940;8.258;2023-01-31T00:15:12;101468.28;;;12.06;42.77
61055;BME280;46939;48.940;8.258;2023-01-31T00:17:42;101469.66;;;11.78;43.65
61055;BME280;46939;48.940;8.258;2023-01-31T00:20:13;101475.63;;;11.63;43.54
61055;BME280;46939;48.940;8.258;2023-01-31T00:22:43;101473.16;;;11.62;43.60
61055;BME280;46939;48.940;8.258;2023-01-31T00:25:11;101472.28;;;12.02;42.88
61055;BME280;46939;48.940;8.258;2023-01-31T00:27:39;101478.00;;;11.50;43.90
61055;BME280;46939;48.940;8.258;2023-01-31T00:30:09;101472.34;;;11.69;43.25
61055;BME280;46939;48.940;8.258;2023-01-31T00:32:38;101478.91;;;12.06;42.77
61055;BME280;46939;48.940;8.258;2023-01-31T00:35:07;101474.63;;;11.81;43.39
61055;BME280;46939;48.940;8.258;2023-01-31T00:37:38;101477.44;;;12.04;42.48
61055;BME280;46939;48.940;8.258;2023-01-31T00:40:07;101467.66;;;11.71;43.42
61055;BME280;46939;48.940;8.258;2023-01-31T00:42:36;101475.13;;;11.68;43.52
61055;BME280;46939;48.940;8.258;2023-01-31T00:45:06;101469.69;;;11.53;43.66
61055;BME280;46939;48.940;8.258;2023-01-31T00:47:34;101473.97;;;10.89;45.10
61055;BME280;46939;48.940;8.258;2023-01-31T00:50:04;101467.47;;;10.83;45.18
61055;BME280;46939;48.940;8.258;2023-01-31T00:52:32;101469.03;;;10.43;46.41
61055;BME280;46939;48.940;8.258;2023-01-31T00:55:04;101463.44;;;10.63;46.23
61055;BME280;46939;48.940;8.258;2023-01-31T00:57:32;101460.41;;;11.24;44.69
61055;BME280;46939;48.940;8.258;2023-01-31T01:00:01;101452.94;;;11.28;44.45
61055;BME280;46939;48.940;8.258;2023-01-31T01:02:29;101444.97;;;11.44;43.99
61055;BME280;46939;48.940;8.258;2023-01-31T01:04:57;101445.13;;;11.51;43.79
61055;BME280;46939;48.940;8.258;2023-01-31T01:07:25;101438.66;;;11.70;43.62
61055;BME280;46939;48.940;8.258;2023-01-31T01:09:54;101439.00;;;11.59;43.63
61055;BME280;46939;48.940;8.258;2023-01-31T01:12:25;101441.13;;;10.82;45.05
61055;BME280;46939;48.940;8.258;2023-01-31T01:14:53;101445.97;;;11.43;44.04
61055;BME280;46939;48.940;8.258;2023-01-31T01:17:21;101435.50;;;11.58;43.83
61055;BME280;46939;48.940;8.258;2023-01-31T01:19:50;101436.69;;;11.31;44.18
61055;BME280;46939;48.940;8.258;2023-01-31T01:22:18;101436.84;;;11.13;44.20
61055;BME280;46939;48.940;8.258;2023-01-31T01:24:47;101442.81;;;11.56;43.68
61055;BME280;46939;48.940;8.258;2023-01-31T01:27:15;101447.28;;;11.56;43.78
61055;BME280;46939;48.940;8.258;2023-01-31T01:29:46;101455.59;;;10.95;45.36
61055;BME280;46939;48.940;8.258;2023-01-31T01:32:14;101459.22;;;11.03;44.83
61055;BME280;46939;48.940;8.258;2023-01-31T01:34:42;101462.66;;;10.79;45.47
61055;BME280;46939;48.940;8.258;2023-01-31T01:37:11;101458.09;;;10.46;46.21
61055;BME280;46939;48.940;8.258;2023-01-31T01:39:44;101450.44;;;10.94;45.39
61055;BME280;46939;48.940;8.258;2023-01-31T01:42:14;101460.41;;;11.00;45.09
61055;BME280;46939;48.940;8.258;2023-01-31T01:44:49;101454.41;;;10.98;45.22
61055;BME280;46939;48.940;8.258;2023-01-31T01:47:23;101457.09;;;11.39;44.13
61055;BME280;46939;48.940;8.258;2023-01-31T01:49:56;101452.75;;;11.30;44.37
61055;BME280;46939;48.940;8.258;2023-01-31T01:52:29;101454.44;;;11.39;44.39
61055;BME280;46939;48.940;8.258;2023-01-31T01:55:04;101445.16;;;11.43;43.90
61055;BME280;46939;48.940;8.258;2023-01-31T01:57:36;101453.09;;;11.51;43.68
61055;BME280;46939;48.940;8.258;2023-01-31T02:00:13;101447.13;;;11.08;44.53
61055;BME280;46939;48.940;8.258;2023-01-31T02:02:42;101462.69;;;10.95;45.03
61055;BME280;46939;48.940;8.258;2023-01-31T02:05:12;101449.78;;;11.16;44.60
61055;BME280;46939;48.940;8.258;2023-01-31T02:07:42;101452.25;;;11.10;44.75
61055;BME280;46939;48.940;8.258;2023-01-31T02:10:16;101448.66;;;11.11;44.67
61055;BME280;46939;48.940;8.258;2023-01-31T02:12:46;101465.38;;;11.11;44.41
61055;BME280;46939;48.940;8.258;2023-01-31T02:15:17;101472.00;;;11.07;44.65
61055;BME280;46939;48.940;8.258;2023-01-31T02:17:45;101455.09;;;11.16;44.60
61055;BME280;46939;48.940;8.258;2023-01-31T02:20:31;101468.34;;;11.08;44.44
61055;BME280;46939;48.940;8.258;2023-01-31T02:23:24;101472.97;;;11.14;44.28
61055;BME280;46939;48.940;8.258;2023-01-31T02:29:22;101485.78;;;11.19;44.27
61055;BME280;46939;48.940;8.258;2023-01-31T02:32:20;101475.09;;;10.86;44.84
61055;BME280;46939;48.940;8.258;2023-01-31T02:35:04;101479.91;;;10.99;44.70
61055;BME280;46939;48.940;8.258;2023-01-31T02:37:38;101488.38;;;10.44;46.47
61055;BME280;46939;48.940;8.258;2023-01-31T02:40:16;101479.91;;;10.91;45.25
61055;BME280;46939;48.940;8.258;2023-01-31T02:42:53;101484.25;;;11.00;44.71
61055;BME280;46939;48.940;8.258;2023-01-31T02:45:30;101480.78;;;10.99;45.21
61055;BME280;46939;48.940;8.258;2023-01-31T02:48:10;101483.22;;;10.77;45.21
61055;BME280;46939;48.940;8.258;2023-01-31T02:50:46;101478.53;;;10.62;46.16
61055;BME280;46939;48.940;8.258;2023-01-31T02:53:20;101466.84;;;10.97;45.28
61055;BME280;46939;48.940;8.258;2023-01-31T02:55:54;101472.97;;;11.14;44.54
61055;BME280;46939;48.940;8.258;2023-01-31T02:58:38;101465.03;;;11.14;44.91
61055;BME280;46939;48.940;8.258;2023-01-31T03:01:11;101465.34;;;10.95;44.85
61055;BME280;46939;48.940;8.258;2023-01-31T03:03:43;101473.34;;;11.19;44.42
61055;BME280;46939;48.940;8.258;2023-01-31T03:09:23;101472.66;;;11.01;44.94
61055;BME280;46939;48.940;8.258;2023-01-31T03:12:09;101470.38;;;11.31;44.48
61055;BME280;46939;48.940;8.258;2023-01-31T03:14:46;101464.69;;;11.34;44.79
61055;BME280;46939;48.940;8.258;2023-01-31T03:17:21;101475.66;;;11.39;44.44
61055;BME280;46939;48.940;8.258;2023-01-31T03:20:07;101471.34;;;11.13;44.87
61055;BME280;46939;48.940;8.258;2023-01-31T03:22:37;101465.38;;;11.44;44.41
61055;BME280;46939;48.940;8.258;2023-01-31T03:25:11;101467.38;;;11.50;44.02
61055;BME280;46939;48.940;8.258;2023-01-31T03:27:43;101466.88;;;11.55;44.04
61055;BME280;46939;48.940;8.258;2023-01-31T03:30:18;101465.53;;;11.59;44.01
61055;BME280;46939;48.940;8.258;2023-01-31T03:32:52;101469.00;;;11.59;43.58
61055;BME280;46939;48.940;8.258;2023-01-31T03:35:28;101466.69;;;11.48;43.83
61055;BME280;46939;48.940;8.258;2023-01-31T03:38:03;101477.16;;;11.58;43.34
61055;BME280;46939;48.940;8.258;2023-01-31T03:40:37;101482.44;;;11.25;43.72
61055;BME280;46939;48.940;8.258;2023-01-31T03:43:13;101492.72;;;11.04;44.53
61055;BME280;46939;48.940;8.258;2023-01-31T03:45:46;101492.84;;;10.94;44.92
61055;BME280;46939;48.940;8.258;2023-01-31T03:48:16;101495.19;;;10.97;45.03
61055;BME280;46939;48.940;8.258;2023-01-31T03:50:52;101496.50;;;10.93;45.11
61055;BME280;46939;48.940;8.258;2023-01-31T03:53:25;101496.19;;;10.96;45.04
61055;BME280;46939;48.940;8.258;2023-01-31T03:55:59;101504.28;;;10.44;45.85
61055;BME280;46939;48.940;8.258;2023-01-31T03:58:32;101507.38;;;10.73;45.34
61055;BME280;46939;48.940;8.258;2023-01-31T04:01:04;101495.81;;;10.91;44.70
61055;BME280;46939;48.940;8.258;2023-01-31T04:03:37;101497.13;;;10.87;44.61
61055;BME280;46939;48.940;8.258;2023-01-31T04:06:10;101499.78;;;10.79;44.94
61055;BME280;46939;48.940;8.258;2023-01-31T04:08:39;101496.47;;;10.77;44.87
61055;BME280;46939;48.940;8.258;2023-01-31T04:11:11;101498.59;;;10.73;44.84
61055;BME280;46939;48.940;8.258;2023-01-31T04:13:41;101510.63;;;10.59;45.40
61055;BME280;46939;48.940;8.258;2023-01-31T04:16:09;101500.53;;;10.55;45.22
61055;BME280;46939;48.940;8.258;2023-01-31T04:18:37;101500.59;;;10.79;44.36
61055;BME280;46939;48.940;8.258;2023-01-31T04:21:08;101493.16;;;10.91;44.19
61055;BME280;46939;48.940;8.258;2023-01-31T04:23:37;101502.22;;;10.72;44.39
61055;BME280;46939;48.940;8.258;2023-01-31T04:26:05;101507.47;;;10.56;44.98
61055;BME280;46939;48.940;8.258;2023-01-31T04:28:33;101508.16;;;10.58;45.03
61055;BME280;46939;48.940;8.258;2023-01-31T04:31:02;101506.66;;;10.55;44.74
61055;BME280;46939;48.940;8.258;2023-01-31T04:33:30;101499.56;;;10.64;44.45
61055;BME280;46939;48.940;8.258;2023-01-31T04:35:58;101490.44;;;10.58;44.57
61055;BME280;46939;48.940;8.258;2023-01-31T04:38:29;101489.63;;;10.58;44.98
61055;BME280;46939;48.940;8.258;2023-01-31T04:40:59;101493.81;;;10.34;45.30
61055;BME280;46939;48.940;8.258;2023-01-31T04:43:27;101499.44;;;10.31;45.71
61055;BME280;46939;48.940;8.258;2023-01-31T04:45:56;101493.56;;;10.19;46.02
61055;BME280;46939;48.940;8.258;2023-01-31T04:48:24;101500.91;;;10.34;45.64
61055;BME280;46939;48.940;8.258;2023-01-31T04:50:52;101507.09;;;10.42;45.42
61055;BME280;46939;48.940;8.258;2023-01-31T04:53:21;101499.78;;;10.36;45.62
61055;BME280;46939;48.940;8.258;2023-01-31T04:55:52;101498.66;;;10.47;45.12
61055;BME280;46939;48.940;8.258;2023-01-31T04:58:21;101496.00;;;10.39;45.32
61055;BME280;46939;48.940;8.258;2023-01-31T05:00:49;101497.47;;;10.41;45.22
61055;BME280;46939;48.940;8.258;2023-01-31T05:03:18;101496.66;;;10.41;45.18
61055;BME280;46939;48.940;8.258;2023-01-31T05:05:47;101504.97;;;10.46;44.84
61055;BME280;46939;48.940;8.258;2023-01-31T05:08:15;101497.81;;;10.38;44.95
61055;BME280;46939;48.940;8.258;2023-01-31T05:10:44;101492.00;;;10.35;45.04
61055;BME280;46939;48.940;8.258;2023-01-31T05:13:15;101503.22;;;10.29;45.09
61055;BME280;46939;48.940;8.258;2023-01-31T05:15:47;101499.38;;;10.23;45.16
61055;BME280;46939;48.940;8.258;2023-01-31T05:18:15;101493.56;;;10.19;45.21
61055;BME280;46939;48.940;8.258;2023-01-31T05:20:43;101502.84;;;10.23;45.02
61055;BME280;46939;48.940;8.258;2023-01-31T05:23:12;101494.81;;;10.07;45.58
61055;BME280;46939;48.940;8.258;2023-01-31T05:25:40;101506.56;;;10.31;45.38
61055;BME280;46939;48.940;8.258;2023-01-31T05:28:09;101504.03;;;10.03;46.10
61055;BME280;46939;48.940;8.258;2023-01-31T05:30:40;101504.34;;;10.26;45.82
61055;BME280;46939;48.940;8.258;2023-01-31T05:33:08;101505.78;;;10.20;45.93
61055;BME280;46939;48.940;8.258;2023-01-31T05:35:37;101497.94;;;10.11;46.69
61055;BME280;46939;48.940;8.258;2023-01-31T05:38:07;101490.22;;;10.17;46.51
61055;BME280;46939;48.940;8.258;2023-01-31T05:40:35;101494.81;;;10.07;46.62
61055;BME280;46939;48.940;8.258;2023-01-31T05:43:04;101499.50;;;9.95;47.35
61055;BME280;46939;48.940;8.258;2023-01-31T05:45:32;101497.16;;;9.84;48.21
61055;BME280;46939;48.940;8.258;2023-01-31T05:48:04;101500.28;;;10.14;47.44
61055;BME280;46939;48.940;8.258;2023-01-31T05:50:32;101505.41;;;10.07;47.77
61055;BME280;46939;48.940;8.258;2023-01-31T05:53:01;101508.63;;;10.19;47.69
61055;BME280;46939;48.940;8.258;2023-01-31T05:55:30;101511.19;;;10.37;47.17
61055;BME280;46939;48.940;8.258;2023-01-31T05:57:58;101504.94;;;9.86;48.19
61055;BME280;46939;48.940;8.258;2023-01-31T06:00:27;101503.63;;;10.42;47.14
61055;BME280;46939;48.940;8.258;2023-01-31T06:02:56;101523.22;;;10.57;46.92
61055;BME280;46939;48.940;8.258;2023-01-31T06:05:27;101516.53;;;10.87;46.12
61055;BME280;46939;48.940;8.258;2023-01-31T06:07:56;101521.00;;;10.44;46.88
61055;BME280;46939;48.940;8.258;2023-01-31T06:10:25;101517.28;;;10.63;46.70
61055;BME280;46939;48.940;8.258;2023-01-31T06:12:53;101512.50;;;10.67;46.40
61055;BME280;46939;48.940;8.258;2023-01-31T06:15:21;101513.00;;;10.70;46.66
61055;BME280;46939;48.940;8.258;2023-01-31T06:17:49;101508.78;;;11.02;45.78
61055;BME280;46939;48.940;8.258;2023-01-31T06:20:18;101507.81;;;11.03;45.91
61055;BME280;46939;48.940;8.258;2023-01-31T06:22:49;101499.28;;;10.83;46.21
61055;BME280;46939;48.940;8.258;2023-01-31T06:25:17;101504.59;;;10.91;45.93
61055;BME280;46939;48.940;8.258;2023-01-31T06:27:46;101506.47;;;11.07;45.69
61055;BME280;46939;48.940;8.258;2023-01-31T06:30:14;101511.09;;;11.05;45.70
61055;BME280;46939;48.940;8.258;2023-01-31T06:32:42;101522.53;;;10.97;46.12
61055;BME280;46939;48.940;8.258;2023-01-31T06:35:11;101519.03;;;10.97;45.85
61055;BME280;46939;48.940;8.258;2023-01-31T06:37:39;101516.59;;;11.28;45.13
61055;BME280;46939;48.940;8.258;2023-01-31T06:40:11;101516.28;;;11.31;44.72
61055;BME280;46939;48.940;8.258;2023-01-31T06:42:39;101509.97;;;11.16;45.24
61055;BME280;46939;48.940;8.258;2023-01-31T06:45:09;101520.06;;;11.20;45.00
61055;BME280;46939;48.940;8.258;2023-01-31T06:47:37;101517.28;;;11.30;44.48
61055;BME280;46939;48.940;8.258;2023-01-31T06:50:06;101521.91;;;11.20;44.73
61055;BME280;46939;48.940;8.258;2023-01-31T06:52:35;101524.13;;;10.82;45.45
61055;BME280;46939;48.940;8.258;2023-01-31T06:55:04;101528.44;;;10.83;45.12
61055;BME280;46939;48.940;8.258;2023-01-31T06:57:35;101525.94;;;10.73;44.83
61055;BME280;46939;48.940;8.258;2023-01-31T07:00:04;101524.81;;;10.42;45.38
61055;BME280;46939;48.940;8.258;2023-01-31T07:02:33;101531.59;;;10.44;45.38
61055;BME280;46939;48.940;8.258;2023-01-31T07:05:01;101531.84;;;10.25;45.85
61055;BME280;46939;48.940;8.258;2023-01-31T07:07:29;101534.56;;;10.41;45.33
61055;BME280;46939;48.940;8.258;2023-01-31T07:09:58;101528.84;;;10.54;44.98
61055;BME280;46939;48.940;8.258;2023-01-31T07:12:26;101523.28;;;10.31;45.75
61055;BME280;46939;48.940;8.258;2023-01-31T07:14:57;101522.47;;;10.39;45.32
61055;BME280;46939;48.940;8.258;2023-01-31T07:17:26;101532.13;;;9.96;46.63
61055;BME280;46939;48.940;8.258;2023-01-31T07:19:54;101527.44;;;9.90;46.38
61055;BME280;46939;48.940;8.258;2023-01-31T07:22:22;101518.03;;;9.69;46.60
61055;BME280;46939;48.940;8.258;2023-01-31T07:24:51;101521.28;;;9.81;46.48
61055;BME280;46939;48.940;8.258;2023-01-31T07:27:19;101511.34;;;9.21;48.13
61055;BME280;46939;48.940;8.258;2023-01-31T07:29:48;101514.50;;;9.25;48.20
61055;BME280;46939;48.940;8.258;2023-01-31T07:32:19;101513.91;;;9.31;47.80
61055;BME280;46939;48.940;8.258;2023-01-31T07:34:47;101517.53;;;9.30;48.04
61055;BME280;46939;48.940;8.258;2023-01-31T07:37:16;101523.41;;;9.06;48.47
61055;BME280;46939;48.940;8.258;2023-01-31T07:39:44;101535.09;;;8.86;48.87
61055;BME280;46939;48.940;8.258;2023-01-31T07:42:12;101533.78;;;7.68;52.05
61055;BME280;46939;48.940;8.258;2023-01-31T07:44:41;101528.34;;;7.89;51.58
61055;BME280;46939;48.940;8.258;2023-01-31T07:47:09;101524.56;;;8.11;50.90
61055;BME280;46939;48.940;8.258;2023-01-31T07:49:40;101522.75;;;8.12;50.83
61055;BME280;46939;48.940;8.258;2023-01-31T07:52:08;101529.41;;;8.53;49.98
61055;BME280;46939;48.940;8.258;2023-01-31T07:54:36;101527.00;;;8.87;49.21
61055;BME280;46939;48.940;8.258;2023-01-31T07:57:05;101528.50;;;9.35;47.70
61055;BME280;46939;48.940;8.258;2023-01-31T07:59:33;101527.72;;;8.62;49.61
61055;BME280;46939;48.940;8.258;2023-01-31T08:02:01;101534.28;;;8.85;48.96
61055;BME280;46939;48.940;8.258;2023-01-31T08:04:45;101519.19;;;9.49;47.37
61055;BME280;46939;48.940;8.258;2023-01-31T08:07:13;101523.69;;;9.74;46.85
61055;BME280;46939;48.940;8.258;2023-01-31T08:09:42;101526.41;;;10.09;46.23
61055;BME280;46939;48.940;8.258;2023-01-31T08:12:14;101525.59;;;9.64;47.00
61055;BME280;46939;48.940;8.258;2023-01-31T08:14:42;101530.31;;;9.96;46.07
61055;BME280;46939;48.940;8.258;2023-01-31T08:17:10;101526.94;;;9.86;46.91
61055;BME280;46939;48.940;8.258;2023-01-31T08:19:39;101515.72;;;9.48;46.81
61055;BME280;46939;48.940;8.258;2023-01-31T08:22:10;101518.16;;;9.86;46.57
61055;BME280;46939;48.940;8.258;2023-01-31T08:24:38;101534.84;;;10.04;46.01
61055;BME280;46939;48.940;8.258;2023-01-31T08:27:06;101526.44;;;10.35;45.60
61055;BME280;46939;48.940;8.258;2023-01-31T08:29:35;101527.81;;;10.21;45.40
61055;BME280;46939;48.940;8.258;2023-01-31T08:32:03;101524.56;;;10.27;45.19
61055;BME280;46939;48.940;8.258;2023-01-31T08:34:32;101535.41;;;10.42;45.07
61055;BME280;46939;48.940;8.258;2023-01-31T08:37:00;101541.72;;;10.49;44.95
61055;BME280;46939;48.940;8.258;2023-01-31T08:39:31;101537.56;;;9.94;45.93
61055;BME280;46939;48.940;8.258;2023-01-31T08:41:59;101541.16;;;9.67;46.69
61055;BME280;46939;48.940;8.258;2023-01-31T08:44:28;101539.66;;;10.09;45.74
61055;BME280;46939;48.940;8.258;2023-01-31T08:46:56;101538.25;;;9.96;46.35
61055;BME280;46939;48.940;8.258;2023-01-31T08:49:26;101545.09;;;10.59;45.02
61055;BME280;46939;48.940;8.258;2023-01-31T08:51:54;101541.44;;;10.26;45.48
61055;BME280;46939;48.940;8.258;2023-01-31T08:54:23;101540.72;;;10.42;46.02
61055;BME280;46939;48.940;8.258;2023-01-31T08:56:54;101529.50;;;9.96;46.38
61055;BME280;46939;48.940;8.258;2023-01-31T08:59:22;101528.63;;;9.95;46.67
61055;BME280;46939;48.940;8.258;2023-01-31T09:01:50;101535.44;;;9.98;46.43
61055;BME280;46939;48.940;8.258;2023-01-31T09:04:18;101534.94;;;10.20;46.25
61055;BME280;46939;48.940;8.258;2023-01-31T09:06:47;101533.47;;;10.26;46.10
61055;BME280;46939;48.940;8.258;2023-01-31T09:09:15;101544.31;;;10.75;45.15
61055;BME280;46939;48.940;8.258;2023-01-31T09:11:43;101546.00;;;10.42;45.66
61055;BME280;46939;48.940;8.258;2023-01-31T09:14:14;101558.84;;;11.05;44.65
61055;BME280;46939;48.940;8.258;2023-01-31T09:16:43;101552.47;;;10.82;45.18
61055;BME280;46939;48.940;8.258;2023-01-31T09:19:12;101547.28;;;11.22;44.06
61055;BME280;46939;48.940;8.258;2023-01-31T09:21:40;101550.63;;;10.82;44.70
61055;BME280;46939;48.940;8.258;2023-01-31T09:24:09;101548.69;;;10.50;45.30
61055;BME280;46939;48.940;8.258;2023-01-31T09:26:37;101550.53;;;10.49;45.33
61055;BME280;46939;48.940;8.258;2023-01-31T09:29:05;101549.81;;;10.82;45.14
61055;BME280;46939;48.940;8.258;2023-01-31T09:31:36;101546.03;;;10.92;44.56
61055;BME280;46939;48.940;8.258;2023-01-31T09:34:05;101545.91;;;11.02;44.38
61055;BME280;46939;48.940;8.258;2023-01-31T09:36:33;101547.38;;;10.96;43.89
61055;BME280;46939;48.940;8.258;2023-01-31T09:39:01;101561.03;;;10.41;44.92
61055;BME280;46939;48.940;8.258;2023-01-31T09:41:33;101571.44;;;9.01;48.50
61055;BME280;46939;48.940;8.258;2023-01-31T09:44:13;101565.00;;;10.11;46.70
61055;BME280;46939;48.940;8.258;2023-01-31T09:46:53;101562.88;;;10.75;45.40
61055;BME280;46939;48.940;8.258;2023-01-31T09:49:26;101555.81;;;10.92;45.00
61055;BME280;46939;48.940;8.258;2023-01-31T09:51:59;101557.84;;;10.64;45.00
61055;BME280;46939;48.940;8.258;2023-01-31T09:54:30;101557.78;;;10.47;45.63
61055;BME280;46939;48.940;8.258;2023-01-31T09:57:05;101563.88;;;10.74;45.17
61055;BME280;46939;48.940;8.258;2023-01-31T09:59:44;101571.22;;;10.88;44.93
61055;BME280;46939;48.940;8.258;2023-01-31T10:02:49;101573.50;;;9.97;46.70
61055;BME280;46939;48.940;8.258;2023-01-31T10:05:22;101566.59;;;10.56;45.36
61055;BME280;46939;48.940;8.258;2023-01-31T10:08:01;101571.19;;;10.20;46.24
61055;BME280;46939;48.940;8.258;2023-01-31T10:10:37;101574.94;;;10.69;45.54
61055;BME280;46939;48.940;8.258;2023-01-31T10:13:13;101567.94;;;10.08;46.59
61055;BME280;46939;48.940;8.258;2023-01-31T10:15:47;101563.88;;;10.40;46.31
61055;BME280;46939;48.940;8.258;2023-01-31T10:18:23;101564.81;;;11.07;44.94
61055;BME280;46939;48.940;8.258;2023-01-31T10:20:56;101550.56;;;10.06;46.77
61055;BME280;46939;48.940;8.258;2023-01-31T10:23:29;101564.25;;;9.57;47.65
61055;BME280;46939;48.940;8.258;2023-01-31T10:26:01;101574.31;;;9.97;47.11
61055;BME280;46939;48.940;8.258;2023-01-31T10:28:35;101578.09;;;10.39;46.22
61055;BME280;46939;48.940;8.258;2023-01-31T10:31:23;101575.13;;;10.16;46.42
61055;BME280;46939;48.940;8.258;2023-01-31T10:34:00;101579.59;;;9.53;47.68
61055;BME280;46939;48.940;8.258;2023-01-31T10:36:35;101575.50;;;9.77;47.44
61055;BME280;46939;48.940;8.258;2023-01-31T10:39:07;101567.97;;;9.90;47.04
61055;BME280;46939;48.940;8.258;2023-01-31T10:41:50;101550.16;;;9.74;46.94
61055;BME280;46939;48.940;8.258;2023-01-31T10:44:39;101539.75;;;9.99;46.60
61055;BME280;46939;48.940;8.258;2023-01-31T10:47:11;101523.25;;;10.65;45.60
61055;BME280;46939;48.940;8.258;2023-01-31T10:49:44;101519.09;;;11.30;44.44
61055;BME280;46939;48.940;8.258;2023-01-31T10:52:31;101520.94;;;11.78;43.54
61055;BME280;46939;48.940;8.258;2023-01-31T10:55:11;101525.66;;;10.85;44.29
61055;BME280;46939;48.940;8.258;2023-01-31T10:57:45;101516.44;;;11.30;44.11
61055;BME280;46939;48.940;8.258;2023-01-31T11:00:19;101513.16;;;11.85;42.54
61055;BME280;46939;48.940;8.258;2023-01-31T11:02:49;101506.63;;;10.97;43.87
61055;BME280;46939;48.940;8.258;2023-01-31T11:05:23;101498.00;;;12.02;42.37
61055;BME280;46939;48.940;8.258;2023-01-31T11:07:53;101490.94;;;12.41;41.60
61055;BME280;46939;48.940;8.258;2023-01-31T11:10:24;101480.00;;;12.28;41.30
61055;BME280;46939;48.940;8.258;2023-01-31T11:12:56;101489.84;;;12.90;40.88
61055;BME280;46939;48.940;8.258;2023-01-31T11:15:27;101481.91;;;12.51;41.44
61055;BME280;46939;48.940;8.258;2023-01-31T11:17:58;101481.09;;;11.94;42.20
61055;BME280;46939;48.940;8.258;2023-01-31T11:20:31;101477.94;;;12.78;41.66
61055;BME280;46939;48.940;8.258;2023-01-31T11:24:15;101471.81;;;12.46;41.89
61055;BME280;46939;48.940;8.258;2023-01-31T11:26:47;101448.78;;;12.92;40.80
61055;BME280;46939;48.940;8.258;2023-01-31T11:29:57;101444.59;;;12.36;41.83
61055;BME280;46939;48.940;8.258;2023-01-31T11:35:54;101468.50;;;11.80;43.18
61055;BME280;46939;48.940;8.258;2023-01-31T11:38:22;101467.84;;;11.13;44.17
61055;BME280;46939;48.940;8.258;2023-01-31T11:40:51;101444.13;;;11.52;43.71
61055;BME280;46939;48.940;8.258;2023-01-31T11:43:23;101437.81;;;11.86;43.29
61055;BME280;46939;48.940;8.258;2023-01-31T11:45:59;101443.47;;;11.34;44.40
61055;BME280;46939;48.940;8.258;2023-01-31T11:49:26;101437.53;;;11.32;44.54
61055;BME280;46939;48.940;8.258;2023-01-31T11:52:02;101432.13;;;11.97;42.94
61055;BME280;46939;48.940;8.258;2023-01-31T11:54:58;101410.31;;;11.21;44.11
61055;BME280;46939;48.940;8.258;2023-01-31T11:57:40;101404.41;;;12.00;43.18
61055;BME280;46939;48.940;8.258;2023-01-31T12:00:20;101421.03;;;11.93;43.44
61055;BME280;46939;48.940;8.258;2023-01-31T12:02:57;101375.34;;;12.37;42.14
61055;BME280;46939;48.940;8.258;2023-01-31T12:05:35;101378.09;;;12.75;41.55
61055;BME280;46939;48.940;8.258;2023-01-31T12:08:25;101362.28;;;12.28;41.75
61055;BME280;46939;48.940;8.258;2023-01-31T12:10:55;101370.06;;;11.98;42.42
61055;BME280;46939;48.940;8.258;2023-01-31T12:13:23;101367.66;;;12.19;42.41
61055;BME280;46939;48.940;8.258;2023-01-31T12:15:56;101362.00;;;12.14;41.54
61055;BME280;46939;48.940;8.258;2023-01-31T12:18:48;101354.75;;;12.08;41.90
61055;BME280;46939;48.940;8.258;2023-01-31T12:21:28;101360.00;;;12.70;40.70
61055;BME280;46939;48.940;8.258;2023-01-31T12:24:12;101359.53;;;12.44;41.88
61055;BME280;46939;48.940;8.258;2023-01-31T12:26:47;101353.97;;;12.31;40.84
61055;BME280;46939;48.940;8.258;2023-01-31T12:29:44;101366.47;;;12.45;40.32
61055;BME280;46939;48.940;8.258;2023-01-31T12:32:27;101372.19;;;12.65;40.28
61055;BME280;46939;48.940;8.258;2023-01-31T12:35:25;101359.41;;;12.60;40.26
61055;BME280;46939;48.940;8.258;2023-01-31T12:38:06;101347.94;;;12.83;40.00
61055;BME280;46939;48.940;8.258;2023-01-31T12:40:43;101352.53;;;12.20;41.13
61055;BME280;46939;48.940;8.258;2023-01-31T12:43:27;101337.84;;;12.55;40.15
61055;BME280;46939;48.940;8.258;2023-01-31T12:46:07;101330.66;;;13.02;39.64
61055;BME280;46939;48.940;8.258;2023-01-31T12:48:58;101317.59;;;12.54;40.28
61055;BME280;46939;48.940;8.258;2023-01-31T12:51:38;101317.75;;;12.76;39.75
61055;BME280;46939;48.940;8.258;2023-01-31T12:54:22;101297.69;;;13.26;38.92
61055;BME280;46939;48.940;8.258;2023-01-31T12:57:04;101297.47;;;12.98;39.46
61055;BME280;46939;48.940;8.258;2023-01-31T12:59:45;101286.56;;;13.22;38.64
61055;BME280;46939;48.940;8.258;2023-01-31T13:02:30;101276.41;;;13.26;39.08
61055;BME280;46939;48.940;8.258;2023-01-31T13:05:04;101273.31;;;12.46;39.77
61055;BME280;46939;48.940;8.258;2023-01-31T13:07:40;101271.53;;;12.39;41.06
61055;BME280;46939;48.940;8.258;2023-01-31T13:10:27;101281.84;;;13.32;39.18
61055;BME280;46939;48.940;8.258;2023-01-31T13:13:04;101274.50;;;12.82;39.51
61055;BME280;46939;48.940;8.258;2023-01-31T13:15:39;101268.63;;;12.86;39.92
61055;BME280;46939;48.940;8.258;2023-01-31T13:18:11;101266.22;;;12.39;40.44
61055;BME280;46939;48.940;8.258;2023-01-31T13:20:42;101264.72;;;11.82;41.09
61055;BME280;46939;48.940;8.258;2023-01-31T13:23:22;101271.66;;;11.52;41.99
61055;BME280;46939;48.940;8.258;2023-01-31T13:25:58;101276.09;;;11.60;42.11
61055;BME280;46939;48.940;8.258;2023-01-31T13:28:35;101295.25;;;12.63;40.28